CMB841 Details

Departure: Norfolk Naval Station (Chambers Field) (KNGU)
Arrival: Naval Station Rota (LERT) at N/A
Route: ATLIC AR9 ZIBUT N3960 4055N N4050 N4040 4035N FRS LENSI T25 GUNTI UZ21 BUSEN A44 ESP A5 VFA W1 PIREN
Notes: USTRANSCOM CONTRACT FLIGHT | PAYLOAD RESTRICTED | ETOPS


Current Weather Information
KNGU 171559Z 33006KT 10SM SCT016 SCT250 29/23 A3003 RMK AO2 SLP170 T02940228 $
LERT 171600Z 25011KT CAVOK 28/17 Q1012 NOSIG